createdAt,value
2022-08-31T00:00:44.092Z,96815.25
2022-08-31T00:02:04.639Z,96808.28
2022-08-31T00:03:25.354Z,96813.31
2022-08-31T00:04:27.917Z,96823.84
2022-08-31T00:05:29.689Z,96818.00
2022-08-31T00:06:35.281Z,96809.44
2022-08-31T00:07:37.396Z,96816.03
2022-08-31T00:08:41.978Z,96810.63
2022-08-31T00:09:43.602Z,96809.88
2022-08-31T00:10:46.659Z,96811.41
2022-08-31T00:11:48.960Z,96814.91
2022-08-31T00:12:50.865Z,96812.16
2022-08-31T00:14:02.212Z,96814.50
2022-08-31T00:15:05.788Z,96815.28
2022-08-31T00:16:09.451Z,96814.09
2022-08-31T00:17:11.241Z,96818.34
2022-08-31T00:18:13.013Z,96819.91
2022-08-31T00:19:15.220Z,96821.44
2022-08-31T00:20:33.227Z,96819.13
2022-08-31T00:21:35.816Z,96820.66
2022-08-31T00:22:37.524Z,96819.88
2022-08-31T00:23:39.108Z,96817.91
2022-08-31T00:24:40.791Z,96818.28
2022-08-31T00:25:44.941Z,96818.66
2022-08-31T00:26:46.667Z,96823.31
2022-08-31T00:27:48.292Z,96824.50
2022-08-31T00:28:50.701Z,96814.75
2022-08-31T00:29:52.372Z,96819.03
2022-08-31T00:30:54.049Z,96818.22
2022-08-31T00:31:55.640Z,96818.59
2022-08-31T00:32:58.579Z,96813.50
2022-08-31T00:34:00.405Z,96812.72
2022-08-31T00:35:02.065Z,96811.91
2022-08-31T00:36:06.132Z,96808.00
2022-08-31T00:37:07.712Z,96813.47
2022-08-31T00:38:10.847Z,96817.34
2022-08-31T00:39:12.429Z,96817.34
2022-08-31T00:40:14.278Z,96817.34
2022-08-31T00:41:17.906Z,96816.56
2022-08-31T00:42:19.543Z,96806.84
2022-08-31T00:43:34.443Z,96811.09
2022-08-31T00:44:36.040Z,96815.81
2022-08-31T00:45:37.698Z,96804.53
2022-08-31T00:46:42.399Z,96818.16
2022-08-31T00:47:44.010Z,96816.56
2022-08-31T00:49:15.728Z,96812.28
2022-08-31T00:50:19.031Z,96801.00
2022-08-31T00:51:20.680Z,96808.06
2022-08-31T00:52:27.592Z,96815.16
2022-08-31T00:53:29.456Z,96811.72
2022-08-31T00:54:36.815Z,96815.69
2022-08-31T00:55:38.489Z,96814.63
2022-08-31T00:56:41.733Z,96815.44
2022-08-31T00:57:48.269Z,96811.13
2022-08-31T00:58:54.673Z,96813.44
2022-08-31T00:59:56.722Z,96809.94
2022-08-31T01:00:59.885Z,96807.59
2022-08-31T01:02:01.843Z,96815.38
2022-08-31T01:03:06.756Z,96818.16
2022-08-31T01:04:08.471Z,96811.56
2022-08-31T01:05:11.170Z,96813.13
2022-08-31T01:06:13.923Z,96817.81
2022-08-31T01:07:15.796Z,96809.28
2022-08-31T01:08:17.834Z,96816.25
2022-08-31T01:09:26.270Z,96818.56
2022-08-31T01:10:31.956Z,96825.59
2022-08-31T01:11:35.565Z,96827.91
2022-08-31T01:12:37.785Z,96816.25
2022-08-31T01:13:41.890Z,96823.59
2022-08-31T01:14:43.660Z,96815.44
2022-08-31T01:15:51.299Z,96820.13
2022-08-31T01:16:56.457Z,96822.44
2022-08-31T01:18:04.715Z,96817.00
2022-08-31T01:19:17.454Z,96816.22
2022-08-31T01:20:30.276Z,96817.00
2022-08-31T01:22:00.721Z,96820.91
2022-08-31T01:23:02.247Z,96810.81
2022-08-31T01:24:06.268Z,96814.31
2022-08-31T01:25:08.144Z,96822.06
2022-08-31T01:26:13.455Z,96827.16
2022-08-31T01:27:19.897Z,96822.88
2022-08-31T01:28:21.489Z,96826.34
2022-08-31T01:29:23.163Z,96820.09
2022-08-31T01:30:26.619Z,96825.50
2022-08-31T01:31:33.669Z,96818.91
2022-08-31T01:32:37.413Z,96818.09
2022-08-31T01:33:39.543Z,96826.63
2022-08-31T01:34:41.777Z,96818.09
2022-08-31T01:35:45.224Z,96817.72
2022-08-31T01:36:48.245Z,96817.72
2022-08-31T01:37:50.119Z,96814.63
2022-08-31T01:38:53.500Z,96816.19
2022-08-31T01:39:55.425Z,96817.78
2022-08-31T01:41:01.914Z,96818.94
2022-08-31T01:42:03.965Z,96810.81
2022-08-31T01:43:05.562Z,96811.56
2022-08-31T01:44:08.051Z,96818.56
2022-08-31T01:45:10.738Z,96810.38
2022-08-31T01:46:13.384Z,96819.34
2022-08-31T01:47:14.969Z,96811.94
2022-08-31T01:48:17.527Z,96814.31
2022-08-31T01:49:20.697Z,96820.16
2022-08-31T01:50:22.381Z,96824.03
2022-08-31T01:51:24.064Z,96817.44
2022-08-31T01:52:27.734Z,96812.75
2022-08-31T01:53:29.650Z,96806.91
2022-08-31T01:54:31.677Z,96811.59
2022-08-31T01:55:33.280Z,96808.91
2022-08-31T01:56:38.590Z,96810.81
2022-08-31T01:57:40.228Z,96810.78
2022-08-31T01:58:42.069Z,96824.41
2022-08-31T01:59:46.664Z,96820.50
2022-08-31T02:00:48.377Z,96831.78
2022-08-31T02:01:52.914Z,96827.91
2022-08-31T02:02:57.486Z,96829.06
2022-08-31T02:03:59.232Z,96830.22
2022-08-31T02:05:01.076Z,96834.09
2022-08-31T02:06:10.467Z,96829.44
2022-08-31T02:07:12.074Z,96829.47
2022-08-31T02:08:13.724Z,96827.53
2022-08-31T02:09:16.040Z,96831.41
2022-08-31T02:10:17.698Z,96829.47
2022-08-31T02:11:19.374Z,96828.69
2022-08-31T02:12:21.030Z,96833.38
2022-08-31T02:13:22.676Z,96828.69
2022-08-31T02:14:25.029Z,96827.13
2022-08-31T02:15:26.631Z,96833.75
2022-08-31T02:16:28.366Z,96824.78
2022-08-31T02:17:30.428Z,96820.13
2022-08-31T02:18:34.210Z,96811.56
2022-08-31T02:19:35.887Z,96822.03
2022-08-31T02:20:37.531Z,96818.56
2022-08-31T02:21:39.385Z,96821.25
2022-08-31T02:22:41.913Z,96820.47
2022-08-31T02:23:43.601Z,96824.00
2022-08-31T02:24:45.241Z,96827.88
2022-08-31T02:25:46.909Z,96813.88
2022-08-31T02:26:53.066Z,96821.63
2022-08-31T02:27:55.418Z,96821.22
2022-08-31T02:28:57.081Z,96827.84
2022-08-31T02:29:58.693Z,96818.50
2022-08-31T02:31:00.307Z,96811.53
2022-08-31T02:32:02.026Z,96811.16
2022-08-31T02:33:04.054Z,96817.75
2022-08-31T02:34:05.711Z,96817.00
2022-08-31T02:35:08.483Z,96810.81
2022-08-31T02:36:10.108Z,96809.25
2022-08-31T02:37:13.250Z,96815.09
2022-08-31T02:38:14.881Z,96809.63
2022-08-31T02:39:16.727Z,96812.75
2022-08-31T02:40:18.524Z,96817.41
2022-08-31T02:41:20.327Z,96815.47
2022-08-31T02:42:22.263Z,96814.72
2022-08-31T02:43:24.691Z,96819.75
2022-08-31T02:44:26.880Z,96819.34
2022-08-31T02:45:28.523Z,96814.31
2022-08-31T02:46:30.179Z,96826.34
2022-08-31T02:47:31.917Z,96816.25
2022-08-31T02:48:35.351Z,96818.19
2022-08-31T02:49:36.979Z,96820.53
2022-08-31T02:50:43.666Z,96820.16
2022-08-31T02:51:45.253Z,96822.47
2022-08-31T02:52:47.724Z,96817.06
2022-08-31T02:53:50.795Z,96823.25
2022-08-31T02:54:52.386Z,96827.13
2022-08-31T02:55:53.963Z,96821.69
2022-08-31T02:56:55.608Z,96822.06
2022-08-31T02:57:57.301Z,96816.25
2022-08-31T02:58:59.198Z,96819.34
2022-08-31T03:00:00.900Z,96819.38
2022-08-31T03:01:04.584Z,96817.78
2022-08-31T03:02:06.268Z,96817.03
2022-08-31T03:03:08.005Z,96816.25
2022-08-31T03:04:09.678Z,96815.47
2022-08-31T03:05:12.848Z,96817.78
2022-08-31T03:06:15.085Z,96818.56
2022-08-31T03:07:16.780Z,96812.31
2022-08-31T03:08:19.459Z,96820.84
2022-08-31T03:09:21.376Z,96823.16
2022-08-31T03:10:25.333Z,96818.50
2022-08-31T03:11:27.340Z,96819.31
2022-08-31T03:12:29.080Z,96818.50
2022-08-31T03:13:30.764Z,96827.88
2022-08-31T03:14:32.362Z,96820.09
2022-08-31T03:15:34.019Z,96811.53
2022-08-31T03:16:35.631Z,96815.81
2022-08-31T03:17:37.246Z,96820.06
2022-08-31T03:18:38.851Z,96808.38
2022-08-31T03:19:40.441Z,96817.34
2022-08-31T03:20:42.034Z,96806.03
2022-08-31T03:21:45.557Z,96814.22
2022-08-31T03:22:49.257Z,96813.06
2022-08-31T03:23:50.830Z,96810.75
2022-08-31T03:24:52.411Z,96806.88
2022-08-31T03:25:54.007Z,96809.59
2022-08-31T03:26:56.020Z,96806.06
2022-08-31T03:27:57.620Z,96805.69
2022-08-31T03:29:00.115Z,96803.75
2022-08-31T03:30:01.756Z,96812.31
2022-08-31T03:31:06.916Z,96814.25
2022-08-31T03:32:08.578Z,96802.63
2022-08-31T03:33:10.242Z,96806.16
2022-08-31T03:34:11.844Z,96796.06
2022-08-31T03:35:18.284Z,96796.03
2022-08-31T03:36:19.887Z,96796.81
2022-08-31T03:37:21.975Z,96794.47
2022-08-31T03:38:23.559Z,96806.13
2022-08-31T03:39:25.197Z,96800.69
2022-08-31T03:40:27.001Z,96803.81
2022-08-31T03:41:28.624Z,96800.69
2022-08-31T03:42:32.083Z,96800.69
2022-08-31T03:43:33.956Z,96799.16
2022-08-31T03:44:36.734Z,96806.94
2022-08-31T03:45:40.140Z,96813.16
2022-08-31T03:46:45.438Z,96809.25
2022-08-31T03:47:47.126Z,96808.88
2022-08-31T03:48:49.933Z,96806.53
2022-08-31T03:49:51.508Z,96811.56
2022-08-31T03:50:53.144Z,96805.38
2022-08-31T03:51:54.730Z,96803.81
2022-08-31T03:52:56.309Z,96801.50
2022-08-31T03:53:58.004Z,96804.59
2022-08-31T03:55:00.100Z,96801.13
2022-08-31T03:56:03.800Z,96799.16
2022-08-31T03:57:06.535Z,96808.09
2022-08-31T03:58:08.790Z,96806.16
2022-08-31T03:59:10.466Z,96808.47
2022-08-31T04:00:12.645Z,96806.16
2022-08-31T04:01:14.531Z,96809.66
2022-08-31T04:02:16.302Z,96804.22
2022-08-31T04:03:18.074Z,96802.28
2022-08-31T04:04:19.812Z,96808.88
2022-08-31T04:05:21.439Z,96802.25
2022-08-31T04:06:23.028Z,96799.56
2022-08-31T04:07:24.660Z,96803.06
2022-08-31T04:08:26.442Z,96809.25
2022-08-31T04:09:28.071Z,96804.22
2022-08-31T04:10:29.677Z,96800.72
2022-08-31T04:11:45.077Z,96794.50
2022-08-31T04:12:47.316Z,96792.94
2022-08-31T04:13:49.267Z,96795.28
2022-08-31T04:14:50.895Z,96795.66
2022-08-31T04:15:52.590Z,96797.59
2022-08-31T04:16:54.219Z,96797.59
2022-08-31T04:17:57.210Z,96791.00
2022-08-31T04:18:59.292Z,96800.72
2022-08-31T04:20:00.945Z,96795.66
2022-08-31T04:21:03.485Z,96796.84
2022-08-31T04:22:05.084Z,96799.16
2022-08-31T04:23:06.883Z,96799.94
2022-08-31T04:24:08.464Z,96804.97
2022-08-31T04:25:10.458Z,96799.94
2022-08-31T04:26:20.583Z,96790.59
2022-08-31T04:27:22.205Z,96793.72
2022-08-31T04:28:25.047Z,96792.94
2022-08-31T04:29:26.995Z,96796.03
2022-08-31T04:30:28.655Z,96792.19
2022-08-31T04:31:31.372Z,96797.59
2022-08-31T04:32:33.731Z,96787.50
2022-08-31T04:33:39.546Z,96791.00
2022-08-31T04:34:41.115Z,96796.06
2022-08-31T04:35:43.341Z,96793.34
2022-08-31T04:36:45.918Z,96790.22
2022-08-31T04:37:48.132Z,96796.44
2022-08-31T04:38:53.062Z,96793.72
2022-08-31T04:39:57.013Z,96792.97
2022-08-31T04:41:12.368Z,96801.50
2022-08-31T04:42:13.939Z,96800.72
2022-08-31T04:43:15.580Z,96792.16
2022-08-31T04:44:19.913Z,96791.00
2022-08-31T04:45:22.155Z,96796.03
2022-08-31T04:46:23.956Z,96793.72
2022-08-31T04:47:25.759Z,96799.19
2022-08-31T04:48:27.387Z,96796.03
2022-08-31T04:49:28.943Z,96795.66
2022-08-31T04:50:31.207Z,96796.84
2022-08-31T04:51:35.569Z,96799.16
2022-08-31T04:52:37.727Z,96791.41
2022-08-31T04:53:40.580Z,96793.34
2022-08-31T04:54:42.289Z,96794.50
2022-08-31T04:55:44.115Z,96796.81
2022-08-31T04:56:46.348Z,96796.81
2022-08-31T04:57:47.967Z,96793.72
2022-08-31T04:59:01.455Z,96791.78
2022-08-31T05:00:05.650Z,96790.59
2022-08-31T05:01:11.742Z,96796.81
2022-08-31T05:02:13.465Z,96790.59
2022-08-31T05:03:15.196Z,96789.03
2022-08-31T05:04:16.821Z,96795.25
2022-08-31T05:05:18.527Z,96788.22
2022-08-31T05:06:23.362Z,96785.91
2022-08-31T05:07:25.738Z,96787.88
2022-08-31T05:08:27.910Z,96785.91
2022-08-31T05:09:29.605Z,96790.94
2022-08-31T05:10:31.845Z,96784.31
2022-08-31T05:11:34.553Z,96785.50
2022-08-31T05:12:36.158Z,96776.19
2022-08-31T05:13:37.949Z,96785.91
2022-08-31T05:14:39.609Z,96784.34
2022-08-31T05:15:43.673Z,96786.66
2022-08-31T05:16:45.978Z,96787.81
2022-08-31T05:17:47.568Z,96790.50
2022-08-31T05:18:51.270Z,96790.88
2022-08-31T05:19:53.252Z,96790.81
2022-08-31T05:20:54.851Z,96784.19
2022-08-31T05:21:56.428Z,96788.06
2022-08-31T05:22:58.484Z,96790.41
2022-08-31T05:24:06.249Z,96782.25
2022-08-31T05:25:09.344Z,96784.13
2022-08-31T05:26:18.224Z,96785.69
2022-08-31T05:27:19.919Z,96782.22
2022-08-31T05:28:23.669Z,96785.72
2022-08-31T05:29:26.092Z,96782.91
2022-08-31T05:30:27.979Z,96779.38
2022-08-31T05:31:30.962Z,96785.59
2022-08-31T05:32:32.673Z,96779.31
2022-08-31T05:33:38.117Z,96774.97
2022-08-31T05:34:41.550Z,96780.44
2022-08-31T05:35:44.756Z,96781.97
2022-08-31T05:36:50.698Z,96782.34
2022-08-31T05:37:54.748Z,96786.22
2022-08-31T05:39:00.801Z,96773.72
2022-08-31T05:40:03.050Z,96789.22
2022-08-31T05:41:06.234Z,96785.97
2022-08-31T05:42:07.962Z,96783.22
2022-08-31T05:43:09.685Z,96782.03
2022-08-31T05:44:12.346Z,96788.66
2022-08-31T05:45:13.990Z,96783.22
2022-08-31T05:46:17.043Z,96788.31
2022-08-31T05:47:18.680Z,96779.72
2022-08-31T05:48:20.655Z,96789.22
2022-08-31T05:49:28.152Z,96786.22
2022-08-31T05:50:29.885Z,96780.00
2022-08-31T05:51:34.937Z,96787.00
2022-08-31T05:52:39.571Z,96788.88
2022-08-31T05:53:41.919Z,96782.56
2022-08-31T05:54:43.710Z,96784.41
2022-08-31T05:55:45.333Z,96781.25
2022-08-31T05:56:46.890Z,96787.38
2022-08-31T05:57:49.148Z,96787.31
2022-08-31T05:58:51.200Z,96784.22
2022-08-31T05:59:52.830Z,96786.56
2022-08-31T06:00:54.496Z,96781.84
2022-08-31T06:01:57.121Z,96784.53
2022-08-31T06:02:59.052Z,96783.66
2022-08-31T06:04:01.653Z,96780.03
2022-08-31T06:05:03.422Z,96786.66
2022-08-31T06:06:05.572Z,96785.63
2022-08-31T06:07:07.472Z,96791.53
2022-08-31T06:08:13.091Z,96784.47
2022-08-31T06:09:16.815Z,96781.00
2022-08-31T06:10:19.059Z,96780.47
2022-08-31T06:11:24.214Z,96787.56
2022-08-31T06:12:26.364Z,96789.03
2022-08-31T06:13:27.929Z,96784.28
2022-08-31T06:14:29.563Z,96785.84
2022-08-31T06:15:31.174Z,96792.31
2022-08-31T06:16:33.536Z,96793.81
2022-08-31T06:17:36.228Z,96781.63
2022-08-31T06:18:50.727Z,96785.16
2022-08-31T06:19:52.458Z,96795.88
2022-08-31T06:21:09.114Z,96798.44
2022-08-31T06:22:10.824Z,96797.28
2022-08-31T06:23:12.426Z,96797.00
2022-08-31T06:24:14.839Z,96795.41
2022-08-31T06:25:19.495Z,96797.03
2022-08-31T06:26:22.906Z,96793.19
2022-08-31T06:27:24.971Z,96794.66
2022-08-31T06:28:26.764Z,96792.31
2022-08-31T06:29:31.558Z,96792.44
2022-08-31T06:30:52.959Z,96797.25
2022-08-31T06:31:57.024Z,96799.56
2022-08-31T06:32:59.057Z,96789.84
2022-08-31T06:34:02.403Z,96794.16
2022-08-31T06:35:04.230Z,96794.47
2022-08-31T06:36:14.296Z,96794.00
2022-08-31T06:37:18.507Z,96794.06
2022-08-31T06:38:20.941Z,96787.09
2022-08-31T06:39:23.496Z,96792.13
2022-08-31T06:40:26.769Z,96794.00
2022-08-31T06:41:39.993Z,96795.13
2022-08-31T06:42:41.595Z,96793.09
2022-08-31T06:43:44.533Z,96796.97
2022-08-31T06:44:46.145Z,96794.97
2022-08-31T06:45:47.776Z,96799.25
2022-08-31T06:46:50.628Z,96795.34
2022-08-31T06:47:52.407Z,96801.16
2022-08-31T06:48:55.917Z,96794.84
2022-08-31T06:49:57.619Z,96805.13
2022-08-31T06:50:59.578Z,96800.97
2022-08-31T06:52:01.213Z,96801.63
2022-08-31T06:53:02.817Z,96798.59
2022-08-31T06:54:21.754Z,96803.34
2022-08-31T06:55:28.930Z,96806.91
2022-08-31T06:56:30.749Z,96809.81
2022-08-31T06:57:32.355Z,96812.81
2022-08-31T06:58:37.560Z,96807.97
2022-08-31T06:59:39.127Z,96814.03
2022-08-31T07:00:41.251Z,96803.63
2022-08-31T07:01:43.007Z,96802.84
2022-08-31T07:02:44.909Z,96804.41
2022-08-31T07:03:57.060Z,96813.88
2022-08-31T07:04:58.616Z,96801.88
2022-08-31T07:06:16.800Z,96801.06
2022-08-31T07:07:18.388Z,96808.44
2022-08-31T07:08:21.393Z,96804.25
2022-08-31T07:09:23.210Z,96803.13
2022-08-31T07:10:24.803Z,96801.28
2022-08-31T07:11:41.019Z,96803.72
2022-08-31T07:12:45.764Z,96800.88
2022-08-31T07:13:48.345Z,96795.50
2022-08-31T07:14:52.929Z,96798.78
2022-08-31T07:16:09.191Z,96803.16
2022-08-31T07:17:10.824Z,96803.16
2022-08-31T07:18:12.417Z,96800.97
2022-08-31T07:19:15.338Z,96803.59
2022-08-31T07:20:17.006Z,96797.47
2022-08-31T07:21:29.349Z,96793.66
2022-08-31T07:22:30.955Z,96797.56
2022-08-31T07:23:32.794Z,96804.84
2022-08-31T07:24:35.320Z,96800.16
2022-08-31T07:25:39.253Z,96805.31
2022-08-31T07:26:46.896Z,96805.63
2022-08-31T07:27:50.515Z,96801.88
2022-08-31T07:28:54.322Z,96802.47
2022-08-31T07:29:55.982Z,96804.44
2022-08-31T07:30:57.599Z,96801.78
2022-08-31T07:31:59.852Z,96798.91
2022-08-31T07:33:06.787Z,96803.03
2022-08-31T07:34:10.665Z,96806.13
2022-08-31T07:35:12.247Z,96807.50
2022-08-31T07:36:15.882Z,96796.91
2022-08-31T07:37:36.108Z,96802.19
2022-08-31T07:38:57.088Z,96798.34
2022-08-31T07:40:17.533Z,96806.66
2022-08-31T07:41:37.741Z,96799.56
2022-08-31T07:42:44.528Z,96801.78
2022-08-31T07:43:46.120Z,96799.97
2022-08-31T07:44:53.594Z,96792.47
2022-08-31T07:45:55.550Z,96797.03
2022-08-31T07:46:57.578Z,96796.59
2022-08-31T07:48:00.421Z,96797.16
2022-08-31T07:49:03.026Z,96789.03
2022-08-31T07:50:04.911Z,96786.41
2022-08-31T07:51:06.508Z,96793.94
2022-08-31T07:52:08.855Z,96796.94
2022-08-31T07:53:11.545Z,96789.72
2022-08-31T07:54:14.411Z,96791.38
2022-08-31T07:55:18.047Z,96787.41
2022-08-31T07:56:21.804Z,96798.94
2022-08-31T07:57:30.160Z,96792.50
2022-08-31T07:58:31.794Z,96791.25
2022-08-31T07:59:34.432Z,96790.19
2022-08-31T08:00:43.314Z,96794.13
2022-08-31T08:01:45.770Z,96786.81
2022-08-31T08:02:52.735Z,96786.63
2022-08-31T08:03:54.682Z,96786.34
2022-08-31T08:04:56.351Z,96792.88
2022-08-31T08:05:58.248Z,96782.63
2022-08-31T08:07:05.970Z,96786.59
2022-08-31T08:08:13.893Z,96787.06
2022-08-31T08:09:24.473Z,96791.16
2022-08-31T08:10:30.022Z,96786.75
2022-08-31T08:11:32.354Z,96796.13
2022-08-31T08:12:36.335Z,96785.31
2022-08-31T08:13:38.978Z,96785.09
2022-08-31T08:14:41.948Z,96781.91
2022-08-31T08:15:43.547Z,96783.34
2022-08-31T08:16:45.119Z,96788.31
2022-08-31T08:17:46.688Z,96782.47
2022-08-31T08:18:48.325Z,96785.22
2022-08-31T08:19:49.948Z,96783.66
2022-08-31T08:20:52.792Z,96784.09
2022-08-31T08:21:55.597Z,96783.34
2022-08-31T08:22:57.824Z,96783.91
2022-08-31T08:24:00.042Z,96779.63
2022-08-31T08:25:06.986Z,96777.00
2022-08-31T08:26:21.220Z,96779.63
2022-08-31T08:27:23.870Z,96775.53
2022-08-31T08:28:45.964Z,96780.69
2022-08-31T08:29:48.530Z,96780.78
2022-08-31T08:30:54.438Z,96772.94
2022-08-31T08:31:56.403Z,96778.13
2022-08-31T08:33:03.906Z,96778.13
2022-08-31T08:34:05.644Z,96773.16
2022-08-31T08:35:08.471Z,96783.31
2022-08-31T08:36:10.743Z,96773.84
2022-08-31T08:37:13.481Z,96784.75
2022-08-31T08:38:15.046Z,96785.03
2022-08-31T08:39:18.308Z,96781.94
2022-08-31T08:40:42.629Z,96772.47
2022-08-31T08:41:47.184Z,96770.59
2022-08-31T08:42:48.764Z,96770.03
2022-08-31T08:43:53.261Z,96777.59
2022-08-31T08:44:59.059Z,96768.69
2022-08-31T08:46:15.221Z,96772.13
2022-08-31T08:47:37.582Z,96766.72
2022-08-31T08:48:43.726Z,96770.59
2022-08-31T08:49:53.970Z,96762.03
2022-08-31T08:50:56.702Z,96763.97
2022-08-31T08:52:11.891Z,96760.97
2022-08-31T08:53:15.258Z,96762.81
2022-08-31T08:54:26.286Z,96757.84
2022-08-31T08:55:35.653Z,96757.09
2022-08-31T08:56:42.096Z,96753.25
2022-08-31T08:57:46.842Z,96751.38
2022-08-31T08:58:48.544Z,96749.34
2022-08-31T08:59:53.974Z,96753.00
2022-08-31T09:00:57.287Z,96746.59
2022-08-31T09:02:07.031Z,96743.53
2022-08-31T09:03:30.883Z,96742.78
2022-08-31T09:05:42.938Z,96745.63
2022-08-31T09:06:59.533Z,96741.75
2022-08-31T09:08:25.628Z,96744.63
2022-08-31T09:10:08.350Z,96734.75
2022-08-31T09:11:20.249Z,96737.34
2022-08-31T09:12:42.906Z,96736.16
2022-08-31T09:13:49.101Z,96725.44
2022-08-31T09:15:08.051Z,96736.47
2022-08-31T09:16:09.702Z,96731.28
2022-08-31T09:17:42.513Z,96722.94
2022-08-31T09:18:47.084Z,96726.09
2022-08-31T09:20:05.681Z,96726.97
2022-08-31T09:21:21.912Z,96725.03
2022-08-31T09:22:23.500Z,96726.34
2022-08-31T09:23:28.065Z,96731.97
2022-08-31T09:24:32.708Z,96730.75
2022-08-31T09:25:52.171Z,96726.47
2022-08-31T09:27:05.085Z,96720.41
2022-08-31T09:28:08.748Z,96723.47
2022-08-31T09:29:20.857Z,96719.06
2022-08-31T09:30:45.617Z,96712.34
2022-08-31T09:31:47.571Z,96712.97
2022-08-31T09:32:57.429Z,96708.25
2022-08-31T09:33:59.046Z,96711.56
2022-08-31T09:35:09.265Z,96706.72
2022-08-31T09:36:15.372Z,96706.72
2022-08-31T09:37:23.456Z,96702.31
2022-08-31T09:38:28.102Z,96703.00
2022-08-31T09:39:36.941Z,96701.78
2022-08-31T09:40:47.891Z,96703.53
2022-08-31T09:41:50.822Z,96699.38
2022-08-31T09:43:08.445Z,96693.13
2022-08-31T09:44:29.465Z,96691.31
2022-08-31T09:45:37.782Z,96693.13
2022-08-31T09:46:56.667Z,96695.28
2022-08-31T09:48:01.280Z,96690.25
2022-08-31T09:49:03.237Z,96688.91
2022-08-31T09:50:09.396Z,96684.09
2022-08-31T09:51:21.616Z,96689.94
2022-08-31T09:52:54.167Z,96679.41
2022-08-31T09:54:23.125Z,96682.16
2022-08-31T09:55:28.076Z,96677.06
2022-08-31T09:56:29.828Z,96673.94
2022-08-31T09:57:43.442Z,96671.84
2022-08-31T09:58:52.599Z,96673.09
2022-08-31T09:59:55.947Z,96666.59
2022-08-31T10:00:58.078Z,96664.88
2022-08-31T10:02:01.193Z,96666.59
2022-08-31T10:03:22.555Z,96672.56
2022-08-31T10:04:27.744Z,96659.25
2022-08-31T10:05:44.548Z,96670.56
2022-08-31T10:07:28.781Z,96662.66
2022-08-31T10:08:53.616Z,96654.94
2022-08-31T10:10:03.580Z,96658.03
2022-08-31T10:11:11.527Z,96654.75
2022-08-31T10:12:21.426Z,96648.56
2022-08-31T10:13:34.599Z,96647.84
2022-08-31T10:14:41.828Z,96655.88
2022-08-31T10:16:08.329Z,96648.84
2022-08-31T10:17:19.113Z,96644.25
2022-08-31T10:18:30.527Z,96646.44
2022-08-31T10:19:44.853Z,96643.56
2022-08-31T10:20:56.008Z,96641.03
2022-08-31T10:22:03.511Z,96637.34
2022-08-31T10:23:14.539Z,96634.25
2022-08-31T10:24:48.424Z,96625.34
2022-08-31T10:26:04.563Z,96622.88
2022-08-31T10:27:23.793Z,96612.94
2022-08-31T10:28:32.120Z,96614.38
2022-08-31T10:29:46.098Z,96611.97
2022-08-31T10:30:59.690Z,96605.97
2022-08-31T10:32:09.208Z,96600.84
2022-08-31T10:33:16.317Z,96609.16
2022-08-31T10:34:41.381Z,96602.13
2022-08-31T10:36:00.665Z,96608.84
2022-08-31T10:37:38.329Z,96600.97
2022-08-31T10:38:47.583Z,96586.44
2022-08-31T10:39:54.097Z,96587.50
2022-08-31T10:41:16.831Z,96577.47
2022-08-31T10:42:37.331Z,96576.97
2022-08-31T10:44:17.806Z,96576.56
2022-08-31T10:45:24.080Z,96569.53
2022-08-31T10:46:26.080Z,96567.16
2022-08-31T10:47:33.250Z,96568.38
2022-08-31T10:48:37.280Z,96569.47
2022-08-31T10:49:40.125Z,96561.47
2022-08-31T10:50:49.040Z,96561.34
2022-08-31T10:51:55.924Z,96558.66
2022-08-31T10:53:03.365Z,96559.53
2022-08-31T10:54:24.774Z,96555.72
2022-08-31T10:55:29.232Z,96552.63
2022-08-31T10:57:05.890Z,96545.72
2022-08-31T10:58:07.437Z,96545.16
2022-08-31T10:59:19.922Z,96551.34
2022-08-31T11:00:45.792Z,96544.31
2022-08-31T11:02:13.331Z,96553.59
2022-08-31T11:03:36.627Z,96556.91
2022-08-31T11:04:58.333Z,96551.38
2022-08-31T11:06:30.062Z,96557.72
2022-08-31T11:07:43.919Z,96554.56
2022-08-31T11:09:02.489Z,96557.75
2022-08-31T11:10:22.237Z,96552.72
2022-08-31T11:11:26.817Z,96552.84
2022-08-31T11:12:40.953Z,96552.56
2022-08-31T11:14:00.263Z,96550.19
2022-08-31T11:15:39.326Z,96547.63
2022-08-31T11:16:50.168Z,96545.31
2022-08-31T11:18:14.810Z,96543.22
2022-08-31T11:19:31.300Z,96550.81
2022-08-31T11:21:12.678Z,96544.41
2022-08-31T11:22:30.938Z,96551.44
2022-08-31T11:23:58.957Z,96542.88
2022-08-31T11:25:04.021Z,96540.44
2022-08-31T11:26:08.314Z,96538.44
2022-08-31T11:27:33.586Z,96542.00
2022-08-31T11:28:48.291Z,96527.28
2022-08-31T11:29:56.756Z,96531.59
2022-08-31T11:31:01.659Z,96529.75
2022-08-31T11:32:26.103Z,96535.44
2022-08-31T11:33:31.242Z,96523.59
2022-08-31T11:34:47.000Z,96529.72
2022-08-31T11:35:49.413Z,96526.50
2022-08-31T11:36:57.669Z,96526.69
2022-08-31T11:38:00.646Z,96515.63
2022-08-31T11:39:03.171Z,96528.84
2022-08-31T11:40:11.037Z,96526.84
2022-08-31T11:41:31.810Z,96521.16
2022-08-31T11:42:38.029Z,96519.31
2022-08-31T11:43:44.682Z,96513.94
2022-08-31T11:45:06.835Z,96508.88
2022-08-31T11:46:27.246Z,96511.97
2022-08-31T11:47:28.962Z,96506.56
2022-08-31T11:48:53.563Z,96504.13
2022-08-31T11:50:05.437Z,96499.09
2022-08-31T11:51:07.578Z,96497.25
2022-08-31T11:52:43.247Z,96494.94
2022-08-31T11:53:49.391Z,96491.38
2022-08-31T11:54:50.926Z,96484.94
2022-08-31T11:56:00.499Z,96486.16
2022-08-31T11:57:03.339Z,96476.00
2022-08-31T11:58:20.791Z,96486.25
2022-08-31T11:59:35.265Z,96479.84
2022-08-31T12:01:11.637Z,96471.69
2022-08-31T12:02:19.348Z,96472.03
2022-08-31T12:03:45.734Z,96463.44
2022-08-31T12:05:00.405Z,96463.88
2022-08-31T12:06:02.361Z,96465.06
2022-08-31T12:07:04.644Z,96464.00
2022-08-31T12:08:11.657Z,96459.50
2022-08-31T12:09:44.260Z,96459.81
2022-08-31T12:11:13.822Z,96452.63
2022-08-31T12:12:42.383Z,96452.84
2022-08-31T12:14:02.353Z,96453.50
2022-08-31T12:15:28.665Z,96449.56
2022-08-31T12:16:57.835Z,96445.28
2022-08-31T12:18:38.425Z,96445.22
2022-08-31T12:20:02.255Z,96448.28
2022-08-31T12:21:36.096Z,96446.41
2022-08-31T12:23:30.282Z,96440.88
2022-08-31T12:25:15.208Z,96443.84
2022-08-31T12:26:43.028Z,96433.09
2022-08-31T12:28:03.902Z,96438.69
2022-08-31T12:29:20.115Z,96436.53
2022-08-31T12:30:24.548Z,96434.97
2022-08-31T12:31:26.678Z,96439.22
2022-08-31T12:32:40.440Z,96434.84
2022-08-31T12:34:00.683Z,96432.78
2022-08-31T12:35:18.499Z,96438.09
2022-08-31T12:36:28.236Z,96437.59
2022-08-31T12:37:37.902Z,96435.91
2022-08-31T12:38:39.558Z,96436.44
2022-08-31T12:39:41.118Z,96431.19
2022-08-31T12:40:51.171Z,96439.97
2022-08-31T12:42:00.296Z,96434.84
2022-08-31T12:43:15.479Z,96435.06
2022-08-31T12:44:22.379Z,96435.63
2022-08-31T12:45:57.314Z,96428.47
2022-08-31T12:47:03.447Z,96425.34
2022-08-31T12:48:17.312Z,96432.41
2022-08-31T12:49:56.433Z,96426.56
2022-08-31T12:51:23.457Z,96431.25
2022-08-31T12:52:34.150Z,96421.34
2022-08-31T12:53:50.615Z,96430.88
2022-08-31T12:55:33.332Z,96430.47
2022-08-31T12:56:46.775Z,96426.25
2022-08-31T12:57:57.139Z,96428.56
2022-08-31T12:59:07.486Z,96433.53
2022-08-31T13:00:15.746Z,96430.47
2022-08-31T13:01:25.897Z,96425.88
2022-08-31T13:02:29.868Z,96425.00
2022-08-31T13:03:32.630Z,96423.47
2022-08-31T13:04:34.306Z,96418.72
2022-08-31T13:05:38.388Z,96423.19
2022-08-31T13:06:42.021Z,96416.81